Time;durP1;ratioP1;P1;durP2;ratioP2;P2;SDS_P1;SDS_P2;PMS_P1;PMS_P2;Temp;Humidity;BMP_temperature;BMP_pressure;BME280_temperature;BME280_humidity;BME280_pressure;Samples;Min_cycle;Max_cycle;Signal;HPM_P1;HPM_P2
2022/05/31 00:04:04;;;;;;;0.00;0.00;;;;;;;5.67;100.00;101511.81;10364571;28;20121;-92
2022/05/31 00:09:04;;;;;;;0.00;0.00;;;;;;;5.79;100.00;101529.44;10377970;28;20080;-92
2022/05/31 00:14:05;;;;;;;0.00;0.00;;;;;;;5.74;100.00;101510.41;10378349;28;20497;-92
2022/05/31 00:19:05;;;;;;;0.00;0.00;;;;;;;5.76;100.00;101511.16;10386494;28;20429;-92
2022/05/31 00:24:08;;;;;;;0.00;0.00;;;;;;;5.61;100.00;101515.75;10367451;28;20018;-92
2022/05/31 00:29:10;;;;;;;0.00;0.00;;;;;;;5.39;100.00;101521.72;10350342;28;20026;-92
2022/05/31 00:34:11;;;;;;;0.00;0.00;;;;;;;5.26;100.00;101520.88;10356978;28;20025;-91
2022/05/31 00:39:13;;;;;;;0.00;0.00;;;;;;;4.98;100.00;101501.69;10357010;28;20033;-91
2022/05/31 00:44:19;;;;;;;0.00;0.00;;;;;;;4.92;100.00;101496.84;10359519;28;20493;-91
2022/05/31 00:49:28;;;;;;;0.05;0.05;;;;;;;4.85;100.00;101495.56;10344361;28;20121;-92
2022/05/31 00:54:33;;;;;;;0.00;0.00;;;;;;;4.89;100.00;101507.63;10349966;28;20027;-91
2022/05/31 00:59:37;;;;;;;0.00;0.00;;;;;;;4.81;100.00;101499.38;10353067;28;20097;-92
2022/05/31 01:04:41;;;;;;;0.00;0.00;;;;;;;4.80;100.00;101502.09;10366642;28;20573;-92
2022/05/31 01:09:42;;;;;;;0.00;0.00;;;;;;;4.62;100.00;101499.78;10349727;28;20026;-91
2022/05/31 01:14:42;;;;;;;0.00;0.00;;;;;;;4.65;100.00;101517.19;10362121;28;20026;-92
2022/05/31 01:19:55;;;;;;;0.00;0.00;;;;;;;4.61;100.00;101505.16;10371693;28;20113;-92
2022/05/31 01:24:58;;;;;;;0.10;0.10;;;;;;;4.72;100.00;101518.47;10344104;28;20033;-91
2022/05/31 01:30:01;;;;;;;0.00;0.00;;;;;;;4.67;100.00;101508.22;10355683;28;20026;-92
2022/05/31 01:35:11;;;;;;;0.00;0.00;;;;;;;4.81;100.00;101509.09;10356076;28;20539;-92
2022/05/31 01:40:20;;;;;;;0.00;0.00;;;;;;;4.79;100.00;101521.53;10356241;28;20073;-93
2022/05/31 01:45:27;;;;;;;0.00;0.00;;;;;;;4.58;100.00;101518.56;10350900;28;20372;-91
2022/05/31 01:50:27;;;;;;;0.00;0.00;;;;;;;4.46;100.00;101520.25;10364434;28;20022;-91
2022/05/31 01:55:30;;;;;;;0.00;0.00;;;;;;;4.39;100.00;101524.22;10355259;28;20022;-91
2022/05/31 02:00:30;;;;;;;0.00;0.00;;;;;;;4.26;100.00;101521.56;10350502;28;20030;-90
2022/05/31 02:05:31;;;;;;;0.00;0.00;;;;;;;4.12;100.00;101516.34;10349612;28;20018;-91
2022/05/31 02:10:32;;;;;;;0.00;0.00;;;;;;;4.01;100.00;101504.69;10351503;28;20018;-92
2022/05/31 02:15:33;;;;;;;0.00;0.00;;;;;;;4.04;100.00;101504.53;10348818;28;20113;-91
2022/05/31 02:20:33;;;;;;;0.00;0.00;;;;;;;3.90;100.00;101491.41;10356872;28;20060;-92
2022/05/31 02:25:35;;;;;;;0.00;0.00;;;;;;;3.86;100.00;101511.81;10350915;28;20030;-92
2022/05/31 02:30:35;;;;;;;0.00;0.00;;;;;;;3.73;100.00;101504.81;10349072;28;20049;-92
2022/05/31 02:35:35;;;;;;;0.00;0.00;;;;;;;3.63;100.00;101488.72;10373620;28;20161;-91
2022/05/31 02:40:36;;;;;;;0.00;0.00;;;;;;;3.60;100.00;101489.75;10370048;28;21894;-90
2022/05/31 02:45:36;;;;;;;0.00;0.00;;;;;;;3.65;100.00;101505.28;10403608;28;20021;-90
2022/05/31 02:50:40;;;;;;;0.00;0.00;;;;;;;3.66;100.00;101508.75;10403182;28;20042;-90
2022/05/31 02:55:40;;;;;;;0.00;0.00;;;;;;;3.61;100.00;101499.38;10400124;28;20337;-91
2022/05/31 03:00:40;;;;;;;0.00;0.00;;;;;;;3.66;100.00;101501.69;10397978;28;20073;-89
2022/05/31 03:05:41;;;;;;;0.00;0.00;;;;;;;3.68;100.00;101499.00;10406788;28;20001;-90
2022/05/31 03:10:45;;;;;;;0.00;0.00;;;;;;;3.61;100.00;101495.91;10371195;28;20026;-92
2022/05/31 03:15:46;;;;;;;0.00;0.00;;;;;;;3.68;100.00;101501.63;10350209;28;20044;-91
2022/05/31 03:20:54;;;;;;;0.00;0.00;;;;;;;4.25;100.00;101507.53;10348623;28;20725;-92
2022/05/31 03:25:55;;;;;;;0.00;0.00;;;;;;;5.01;100.00;101490.06;10352971;28;20022;-92
2022/05/31 03:30:55;;;;;;;0.00;0.00;;;;;;;5.84;100.00;101506.13;10350272;28;20030;-92
2022/05/31 03:35:56;;;;;;;0.00;0.00;;;;;;;5.87;100.00;101507.72;10357978;28;20019;-91
2022/05/31 03:40:56;;;;;;;0.00;0.00;;;;;;;5.55;100.00;101495.03;10364382;28;20033;-91
2022/05/31 03:45:56;;;;;;;0.00;0.00;;;;;;;5.45;100.00;101512.50;10354867;28;20060;-93
2022/05/31 03:51:05;;;;;;;0.00;0.00;;;;;;;5.98;100.00;101509.63;10366968;28;20030;-90
2022/05/31 03:56:08;;;;;;;0.03;0.03;;;;;;;7.34;100.00;101504.50;10363528;28;20113;-91
2022/05/31 04:01:09;;;;;;;0.00;0.00;;;;;;;8.99;100.00;101507.75;10355419;28;20470;-90
2022/05/31 04:06:09;;;;;;;0.00;0.00;;;;;;;9.81;100.00;101496.94;10356190;28;20030;-91
2022/05/31 04:11:10;;;;;;;0.00;0.00;;;;;;;10.55;100.00;101528.38;10358003;28;20022;-91
2022/05/31 04:16:15;;;;;;;0.10;0.10;;;;;;;11.09;100.00;101516.22;10352933;28;20050;-93
2022/05/31 04:21:17;;;;;;;0.10;0.10;;;;;;;12.79;100.00;101525.31;10360144;28;20026;-91
2022/05/31 04:26:18;;;;;;;0.10;0.10;;;;;;;13.96;98.09;101524.72;10365279;28;20064;-91
2022/05/31 04:31:18;;;;;;;0.10;0.10;;;;;;;15.05;96.16;101525.41;10360707;28;20023;-92
2022/05/31 04:36:21;;;;;;;0.10;0.10;;;;;;;16.04;89.38;101535.56;10390480;28;20049;-91
2022/05/31 04:41:24;;;;;;;0.10;0.10;;;;;;;16.82;84.61;101517.50;10357322;28;20029;-92
2022/05/31 04:46:28;;;;;;;0.10;0.10;;;;;;;17.50;80.23;101515.53;10354594;28;20026;-92
2022/05/31 04:51:32;;;;;;;0.00;0.00;;;;;;;17.99;78.51;101519.44;10353350;28;20398;-93
2022/05/31 04:56:33;;;;;;;0.00;0.00;;;;;;;18.48;75.45;101519.50;10378532;28;20029;-90
2022/05/31 05:01:35;;;;;;;0.00;0.00;;;;;;;19.20;73.56;101525.66;10363864;28;20090;-93
2022/05/31 05:06:36;;;;;;;0.00;0.00;;;;;;;19.80;71.79;101528.66;10371269;28;20033;-93
2022/05/31 05:11:36;;;;;;;0.03;0.03;;;;;;;20.19;68.41;101522.50;10376368;28;20367;-93
2022/05/31 05:16:36;;;;;;;0.10;0.10;;;;;;;20.66;65.23;101526.09;10380684;28;20026;-92
2022/05/31 05:21:37;;;;;;;0.00;0.00;;;;;;;20.50;67.73;101504.81;10369184;28;20089;-93
2022/05/31 05:26:37;;;;;;;0.00;0.00;;;;;;;20.62;65.26;101511.31;10377325;28;20038;-92
2022/05/31 05:31:40;;;;;;;0.10;0.10;;;;;;;20.61;66.88;101517.78;10380426;28;20032;-93
2022/05/31 05:36:40;;;;;;;0.00;0.00;;;;;;;20.88;65.58;101534.81;10380367;28;20057;-93
2022/05/31 05:41:41;;;;;;;0.00;0.00;;;;;;;21.08;63.75;101523.94;10376707;28;20105;-92
2022/05/31 05:46:41;;;;;;;0.10;0.10;;;;;;;21.45;59.37;101533.25;10447027;22;20301;-72
2022/05/31 05:51:44;;;;;;;0.00;0.00;;;;;;;21.71;58.92;101539.63;10351034;28;20429;-73
2022/05/31 05:56:44;;;;;;;0.05;0.05;;;;;;;21.69;55.43;101539.81;10342102;28;20057;-74
2022/05/31 06:01:49;;;;;;;0.00;0.00;;;;;;;22.11;56.00;101547.56;10335725;28;20437;-72
2022/05/31 06:06:58;;;;;;;0.10;0.10;;;;;;;21.77;56.00;101548.78;10328376;28;20104;-73
2022/05/31 06:12:15;;;;;;;0.10;0.10;;;;;;;21.59;54.89;101542.19;10326923;28;20121;-73
2022/05/31 06:17:20;;;;;;;0.00;0.00;;;;;;;21.71;57.56;101539.63;10335625;28;20114;-73
2022/05/31 06:22:20;;;;;;;0.00;0.00;;;;;;;21.50;55.76;101539.91;10337014;28;20025;-73
2022/05/31 06:27:21;;;;;;;0.10;0.10;;;;;;;21.45;56.02;101548.69;10340571;28;20518;-73
2022/05/31 06:32:22;;;;;;;0.00;0.00;;;;;;;21.95;52.63;101548.06;10334870;28;20486;-72
2022/05/31 06:37:22;;;;;;;0.00;0.00;;;;;;;22.41;53.95;101555.94;10353096;28;20033;-72
2022/05/31 06:42:23;;;;;;;0.00;0.00;;;;;;;23.04;48.56;101544.16;10349815;28;20433;-73
2022/05/31 06:47:24;;;;;;;0.10;0.10;;;;;;;22.51;51.05;101547.28;10341380;28;20072;-73
2022/05/31 06:57:45;;;;;;;0.03;0.03;;;;;;;22.31;49.96;101548.28;10336193;28;20213;-73
2022/05/31 07:02:47;;;;;;;0.10;0.10;;;;;;;21.63;50.96;101551.53;10328933;28;20048;-73
2022/05/31 07:07:47;;;;;;;0.00;0.00;;;;;;;20.68;51.97;101542.13;10349638;28;20443;-74
2022/05/31 07:12:48;;;;;;;0.05;0.05;;;;;;;21.30;52.59;101553.50;10348780;28;20056;-73
2022/05/31 07:17:48;;;;;;;0.10;0.10;;;;;;;21.82;52.37;101543.53;10384214;28;20025;-73
2022/05/31 07:22:51;;;;;;;0.00;0.00;;;;;;;20.83;52.32;101536.47;10351214;28;20014;-74
2022/05/31 07:27:52;;;;;;;0.00;0.00;;;;;;;20.87;54.47;101538.56;10338267;28;20121;-73
2022/05/31 07:32:52;;;;;;;0.00;0.00;;;;;;;21.25;50.80;101541.41;10348078;28;20030;-73
2022/05/31 07:37:52;;;;;;;0.10;0.10;;;;;;;20.71;53.13;101545.25;10347157;28;20030;-74
2022/05/31 07:42:53;;;;;;;0.00;0.00;;;;;;;20.54;53.75;101535.91;10349180;28;20022;-74
2022/05/31 07:47:53;;;;;;;0.10;0.10;;;;;;;21.17;50.92;101528.09;10346107;28;20026;-74
2022/05/31 07:52:54;;;;;;;0.10;0.10;;;;;;;21.03;52.76;101530.03;10357347;28;20148;-74
2022/05/31 08:03:14;;;;;;;0.00;0.00;;;;;;;20.07;60.38;101524.13;10355221;28;20708;-73
2022/05/31 08:08:14;;;;;;;0.00;0.00;;;;;;;20.50;57.54;101521.06;10353789;28;20025;-73
2022/05/31 08:13:15;;;;;;;0.05;0.05;;;;;;;20.69;58.48;101524.84;10364350;28;20060;-74
2022/05/31 08:18:16;;;;;;;0.00;0.00;;;;;;;20.48;57.16;101524.00;10348378;28;20092;-74
2022/05/31 08:23:16;;;;;;;0.10;0.10;;;;;;;20.29;59.24;101522.09;10346079;28;20121;-74
2022/05/31 08:28:17;;;;;;;0.00;0.00;;;;;;;20.82;59.07;101516.69;10339285;28;20053;-74
2022/05/31 08:33:17;;;;;;;0.08;0.08;;;;;;;21.15;56.96;101508.53;10337467;28;20037;-72
2022/05/31 08:38:18;;;;;;;0.00;0.00;;;;;;;21.31;52.08;101506.38;10349916;28;20386;-73
2022/05/31 08:43:32;;;;;;;0.10;0.10;;;;;;;21.14;50.96;101506.84;10352652;28;20042;-75
2022/05/31 08:48:55;;;;;;;0.00;0.00;;;;;;;20.54;58.35;101504.25;10357455;28;20092;-73
2022/05/31 08:59:46;;;;;;;0.00;0.00;;;;;;;19.62;56.85;101499.44;10346708;28;20493;-74
2022/05/31 09:05:04;;;;;;;;;;;;;;;20.19;56.08;101498.16;10347514;28;20014;-73
2022/05/31 09:10:32;;;;;;;0.00;0.00;;;;;;;20.42;54.32;101488.78;10340504;28;19909;-73
2022/05/31 09:15:41;;;;;;;0.00;0.00;;;;;;;21.33;58.54;101502.44;10353930;28;20029;-73
2022/05/31 09:20:48;;;;;;;0.00;0.00;;;;;;;21.43;53.26;101491.16;10341309;28;20405;-74
2022/05/31 09:25:59;;;;;;;0.00;0.00;;;;;;;20.81;51.42;101485.28;10346193;28;20034;-73
2022/05/31 09:31:08;;;;;;;0.00;0.00;;;;;;;20.49;56.43;101478.81;10350787;28;20472;-74
2022/05/31 09:36:36;;;;;;;0.00;0.00;;;;;;;19.21;55.27;101476.84;10353148;28;20057;-74
2022/05/31 09:41:58;;;;;;;0.00;0.00;;;;;;;19.13;56.96;101468.91;10341810;28;20018;-74
2022/05/31 09:47:19;;;;;;;0.00;0.00;;;;;;;19.12;55.97;101466.41;10335001;28;20034;-74
2022/05/31 09:52:30;;;;;;;0.00;0.00;;;;;;;19.58;57.41;101460.38;10343363;28;20037;-73
2022/05/31 09:57:30;;;;;;;0.10;0.10;;;;;;;20.07;58.63;101461.94;10355019;28;20370;-72
2022/05/31 10:02:35;;;;;;;0.10;0.10;;;;;;;19.60;54.02;101458.28;10349726;28;20014;-72
2022/05/31 10:07:37;;;;;;;0.00;0.00;;;;;;;18.86;55.05;101448.19;10340010;28;20037;-73
2022/05/31 10:12:58;;;;;;;0.00;0.00;;;;;;;18.06;59.26;101455.63;10346974;28;20084;-75
2022/05/31 10:18:04;;;;;;;0.00;0.00;;;;;;;17.67;59.80;101456.06;10348073;28;20362;-74
2022/05/31 10:23:15;;;;;;;0.10;0.10;;;;;;;17.47;62.77;101445.88;10355371;28;20018;-75
2022/05/31 10:28:29;;;;;;;0.10;0.10;;;;;;;17.27;60.80;101452.88;10345682;28;20018;-74
2022/05/31 10:33:32;;;;;;;0.05;0.05;;;;;;;17.41;59.82;101442.09;10339015;28;20022;-73
2022/05/31 10:38:33;;;;;;;0.05;0.05;;;;;;;17.37;60.33;101434.59;10352731;28;20048;-74
2022/05/31 10:43:43;;;;;;;0.00;0.00;;;;;;;17.74;59.42;101435.41;10345799;28;20037;-73
2022/05/31 10:48:47;;;;;;;0.10;0.10;;;;;;;18.14;59.66;101425.84;10340455;28;20130;-74
2022/05/31 10:53:50;;;;;;;0.10;0.10;;;;;;;18.38;57.80;101438.06;10334768;28;20456;-72
2022/05/31 10:58:58;;;;;;;0.08;0.08;;;;;;;18.83;55.52;101432.41;10340233;28;20485;-74
2022/05/31 11:04:44;;;;;;;0.10;0.10;;;;;;;19.39;59.69;101419.56;10342916;28;20477;-73
2022/05/31 11:15:34;;;;;;;0.00;0.00;;;;;;;18.80;58.57;101422.84;10342033;28;20033;-73
2022/05/31 11:20:51;;;;;;;0.00;0.00;;;;;;;19.32;59.84;101415.19;10348702;28;20022;-74
2022/05/31 11:26:07;;;;;;;0.10;0.10;;;;;;;19.23;60.78;101414.53;10346436;28;20436;-75
2022/05/31 11:31:23;;;;;;;0.00;0.00;;;;;;;19.42;54.19;101407.53;10337666;28;20022;-75
2022/05/31 11:36:42;;;;;;;0.10;0.10;;;;;;;19.41;55.80;101405.88;10345862;28;20022;-75
2022/05/31 11:42:03;;;;;;;0.10;0.10;;;;;;;19.04;53.55;101408.00;10342336;28;20022;-75
2022/05/31 11:47:17;;;;;;;0.10;0.10;;;;;;;19.10;58.68;101392.88;10344797;23;20046;-71
2022/05/31 11:52:28;;;;;;;0.10;0.10;;;;;;;19.84;56.10;101398.28;10323803;28;20074;-71
2022/05/31 11:57:57;;;;;;;0.00;0.00;;;;;;;20.15;50.38;101398.72;10311241;28;20026;-71
2022/05/31 12:03:11;;;;;;;0.10;0.10;;;;;;;19.92;47.06;101386.41;10313768;28;20446;-71
2022/05/31 12:08:16;;;;;;;0.00;0.00;;;;;;;20.12;52.00;101391.84;10311335;28;20065;-71
2022/05/31 12:13:18;;;;;;;0.00;0.00;;;;;;;19.83;53.14;101380.38;10313544;28;20032;-71
2022/05/31 12:18:30;;;;;;;0.00;0.00;;;;;;;20.15;53.29;101377.06;10314591;28;20385;-72
2022/05/31 12:23:37;;;;;;;0.00;0.00;;;;;;;20.08;46.21;101374.38;10344812;28;20026;-71
2022/05/31 12:28:48;;;;;;;0.00;0.00;;;;;;;19.55;49.67;101368.91;10320030;28;20077;-71
2022/05/31 12:33:48;;;;;;;0.00;0.00;;;;;;;19.31;51.47;101373.81;10337496;28;20046;-71
2022/05/31 12:39:19;;;;;;;0.10;0.10;;;;;;;19.15;49.98;101366.09;10342248;28;20045;-72
2022/05/31 12:44:29;;;;;;;0.00;0.00;;;;;;;19.23;56.19;101372.16;10311077;28;20231;-72
2022/05/31 12:49:31;;;;;;;0.10;0.10;;;;;;;19.73;59.86;101368.34;10357174;28;20033;-71
2022/05/31 12:54:49;;;;;;;0.00;0.00;;;;;;;19.87;56.16;101367.31;10310583;28;20027;-72
2022/05/31 12:59:52;;;;;;;0.10;0.10;;;;;;;19.82;56.61;101364.38;10327981;28;20078;-72
2022/05/31 13:04:58;;;;;;;0.00;0.00;;;;;;;19.58;50.17;101361.22;10328424;28;20099;-73
2022/05/31 13:10:33;;;;;;;0.00;0.00;;;;;;;19.34;53.48;101351.81;10320393;28;20421;-71
2022/05/31 13:20:59;;;;;;;0.00;0.00;;;;;;;18.83;49.44;101343.34;10316090;28;20030;-71
2022/05/31 13:26:08;;;;;;;0.08;0.08;;;;;;;18.79;51.24;101332.09;10309391;28;20113;-71
2022/05/31 13:31:19;;;;;;;0.05;0.05;;;;;;;18.98;52.23;101341.31;10320749;28;20390;-71
2022/05/31 13:36:23;;;;;;;0.00;0.00;;;;;;;18.89;51.78;101350.63;10305038;28;20494;-71
2022/05/31 13:41:23;;;;;;;0.00;0.00;;;;;;;18.58;52.78;101345.66;10303921;28;20398;-71
2022/05/31 13:46:39;;;;;;;0.10;0.10;;;;;;;18.42;53.23;101346.84;10309214;28;20033;-71
2022/05/31 13:51:55;;;;;;;0.00;0.00;;;;;;;18.28;50.23;101340.50;10319390;28;20023;-71
2022/05/31 13:57:01;;;;;;;0.00;0.00;;;;;;;18.21;51.66;101331.53;10307655;28;20033;-71
2022/05/31 14:02:03;;;;;;;0.10;0.10;;;;;;;18.35;54.31;101332.47;10303470;28;20672;-70
2022/05/31 14:07:09;;;;;;;0.10;0.10;;;;;;;18.49;52.45;101329.63;10304369;28;20022;-71
2022/05/31 14:12:10;;;;;;;0.00;0.00;;;;;;;18.48;52.09;101335.25;10297968;28;20078;-70
2022/05/31 14:17:12;;;;;;;0.10;0.10;;;;;;;18.59;51.17;101336.53;10320427;28;20563;-70
2022/05/31 14:22:27;;;;;;;0.00;0.00;;;;;;;18.71;54.53;101326.84;10313015;28;20090;-71
2022/05/31 14:27:28;;;;;;;0.10;0.10;;;;;;;18.77;53.29;101321.50;10284938;28;20232;-71
2022/05/31 14:32:31;;;;;;;0.10;0.10;;;;;;;18.87;54.97;101317.59;10304538;28;20027;-71
2022/05/31 14:37:38;;;;;;;0.00;0.00;;;;;;;18.74;51.19;101324.63;10289209;28;20490;-71
2022/05/31 14:42:53;;;;;;;0.10;0.10;;;;;;;18.45;51.32;101317.59;10289229;28;20111;-72
2022/05/31 14:47:53;;;;;;;0.00;0.00;;;;;;;18.15;50.65;101310.75;10291087;28;20034;-72
2022/05/31 14:52:56;;;;;;;0.10;0.10;;;;;;;18.12;50.84;101313.84;10343862;28;20022;-72
2022/05/31 15:03:36;;;;;;;0.10;0.10;;;;;;;18.76;51.66;101316.31;10328884;28;20026;-72
2022/05/31 15:08:44;;;;;;;0.10;0.10;;;;;;;18.81;52.63;101310.31;10328659;28;20142;-72
2022/05/31 15:19:18;;;;;;;0.10;0.10;;;;;;;18.48;49.25;101303.72;10317728;28;20035;-72
2022/05/31 15:24:35;;;;;;;0.10;0.10;;;;;;;18.24;51.89;101310.44;10334880;28;20034;-71
2022/05/31 15:29:35;;;;;;;0.10;0.10;;;;;;;18.23;52.50;101303.34;10334631;28;20025;-72
2022/05/31 15:34:36;;;;;;;0.00;0.00;;;;;;;18.31;54.93;101305.06;10335706;28;20499;-71
2022/05/31 15:39:37;;;;;;;0.00;0.00;;;;;;;18.20;54.43;101301.03;10351300;28;20033;-72
2022/05/31 15:44:39;;;;;;;0.00;0.00;;;;;;;18.08;50.28;101302.63;10335745;28;20444;-72
2022/05/31 15:49:40;;;;;;;0.00;0.00;;;;;;;17.89;53.96;101304.16;10354655;28;20018;-72
2022/05/31 15:54:48;;;;;;;0.10;0.10;;;;;;;17.84;54.46;101306.63;10350729;28;20413;-72
2022/05/31 15:59:48;;;;;;;0.05;0.05;;;;;;;17.83;55.71;101299.53;10335393;28;20108;-71
2022/05/31 16:04:49;;;;;;;0.10;0.10;;;;;;;17.92;55.23;101300.22;10334900;28;20100;-71
2022/05/31 16:09:52;;;;;;;0.10;0.10;;;;;;;18.01;61.60;101302.59;10350054;28;20486;-71
2022/05/31 16:14:54;;;;;;;0.10;0.10;;;;;;;18.09;57.80;101297.06;10349606;28;20054;-72
2022/05/31 16:19:55;;;;;;;0.10;0.10;;;;;;;17.90;57.20;101299.63;10335100;28;20026;-72
2022/05/31 16:24:57;;;;;;;0.00;0.00;;;;;;;17.64;55.70;101301.84;10325469;28;20026;-72
2022/05/31 16:29:57;;;;;;;0.00;0.00;;;;;;;17.39;58.44;101287.13;10332225;28;20029;-72
2022/05/31 16:34:57;;;;;;;0.10;0.10;;;;;;;17.17;57.36;101284.44;10328732;28;20026;-71
2022/05/31 16:45:18;;;;;;;0.10;0.10;;;;;;;16.57;64.59;101282.88;10333898;28;20030;-72
2022/05/31 16:50:18;;;;;;;0.10;0.10;;;;;;;16.39;60.41;101275.19;10342051;28;20034;-72
2022/05/31 16:55:20;;;;;;;0.10;0.10;;;;;;;16.38;63.42;101275.41;10334064;28;20061;-72
2022/05/31 17:00:21;;;;;;;0.00;0.00;;;;;;;16.35;62.02;101267.69;10335356;28;20066;-71
2022/05/31 17:05:21;;;;;;;0.10;0.10;;;;;;;16.37;60.78;101266.47;10333548;28;20053;-72
2022/05/31 17:15:41;;;;;;;0.10;0.10;;;;;;;16.50;57.03;101263.16;10333773;28;20062;-71
2022/05/31 17:20:45;;;;;;;0.10;0.10;;;;;;;16.51;57.71;101268.31;10354515;28;20481;-71
2022/05/31 17:25:50;;;;;;;0.10;0.10;;;;;;;16.46;58.76;101267.22;10352819;28;20026;-71
2022/05/31 17:30:50;;;;;;;0.10;0.10;;;;;;;16.43;61.59;101267.59;10333004;28;20535;-72
2022/05/31 17:36:03;;;;;;;0.10;0.10;;;;;;;16.35;58.96;101260.47;10348450;28;20022;-72
2022/05/31 17:41:12;;;;;;;0.00;0.00;;;;;;;16.22;58.91;101261.09;10333790;28;20105;-72
2022/05/31 17:51:25;;;;;;;0.00;0.00;;;;;;;15.88;57.81;101267.00;10354287;28;20581;-74
2022/05/31 17:56:28;;;;;;;0.10;0.10;;;;;;;15.72;61.24;101270.69;10373702;28;20029;-73
2022/05/31 18:01:29;;;;;;;0.10;0.10;;;;;;;15.54;62.79;101271.00;10410705;28;20219;-73
2022/05/31 18:06:31;;;;;;;0.00;0.00;;;;;;;15.32;63.05;101264.63;10409881;28;20025;-73
2022/05/31 18:11:31;;;;;;;0.00;0.00;;;;;;;15.11;65.76;101265.28;10410328;28;20013;-73
2022/05/31 18:16:34;;;;;;;0.03;0.03;;;;;;;14.93;67.07;101270.94;10408328;28;20546;-73
2022/05/31 18:21:36;;;;;;;0.10;0.10;;;;;;;14.78;66.93;101274.56;10408863;28;20443;-73
2022/05/31 18:26:38;;;;;;;0.10;0.10;;;;;;;14.66;67.09;101272.25;10396431;28;20393;-73
2022/05/31 18:31:38;;;;;;;0.10;0.10;;;;;;;14.53;69.65;101274.66;10368602;28;20029;-73
2022/05/31 18:36:58;;;;;;;0.10;0.10;;;;;;;14.38;73.29;101279.88;10369450;28;20026;-73
2022/05/31 18:42:01;;;;;;;0.10;0.10;;;;;;;14.19;76.95;101275.75;10367580;28;20048;-73
2022/05/31 18:47:02;;;;;;;0.10;0.10;;;;;;;13.96;78.39;101272.97;10367892;28;20034;-73
2022/05/31 18:52:03;;;;;;;0.10;0.10;;;;;;;13.84;79.32;101278.84;10368750;28;20079;-73
2022/05/31 18:57:03;;;;;;;0.10;0.10;;;;;;;13.74;79.06;101279.03;10366974;28;20034;-73
2022/05/31 19:02:16;;;;;;;0.10;0.10;;;;;;;13.66;77.17;101273.66;10370509;28;20036;-73
2022/05/31 19:07:17;;;;;;;0.10;0.10;;;;;;;13.55;77.60;101278.34;10376799;28;20018;-73
2022/05/31 19:12:18;;;;;;;0.10;0.10;;;;;;;13.41;77.96;101283.53;10376625;28;20084;-73
2022/05/31 19:17:18;;;;;;;0.10;0.10;;;;;;;13.30;78.12;101288.22;10375709;28;20033;-73
2022/05/31 19:22:19;;;;;;;0.10;0.10;;;;;;;13.25;77.93;101287.00;10375138;28;20030;-73
2022/05/31 19:27:19;;;;;;;0.10;0.10;;;;;;;13.19;78.56;101282.31;10375094;28;20025;-73
2022/05/31 19:32:20;;;;;;;0.10;0.10;;;;;;;13.14;81.13;101290.81;10374263;28;20021;-73
2022/05/31 19:37:22;;;;;;;0.10;0.10;;;;;;;13.07;82.27;101297.84;10374786;28;20057;-73
2022/05/31 19:42:26;;;;;;;0.13;0.13;;;;;;;12.99;83.22;101295.97;10373803;28;20025;-73
2022/05/31 19:47:27;;;;;;;0.10;0.10;;;;;;;12.93;85.00;101301.16;10374295;28;20038;-73
2022/05/31 19:52:28;;;;;;;0.00;0.00;;;;;;;12.85;84.76;101307.31;10375004;28;20429;-73
2022/05/31 19:57:31;;;;;;;0.10;0.10;;;;;;;12.80;86.43;101315.81;10373520;28;20038;-73
2022/05/31 20:02:32;;;;;;;0.10;0.10;;;;;;;12.75;87.77;101322.66;10374887;28;20311;-73
2022/05/31 20:07:32;;;;;;;0.10;0.10;;;;;;;12.69;88.83;101324.97;10373632;28;20092;-73
2022/05/31 20:12:43;;;;;;;0.10;0.10;;;;;;;12.62;89.83;101326.63;10374006;28;20643;-73
2022/05/31 20:17:47;;;;;;;0.10;0.10;;;;;;;12.54;90.64;101318.56;10373231;28;20033;-73
2022/05/31 20:22:48;;;;;;;0.10;0.10;;;;;;;12.47;91.49;101320.19;10374025;28;20032;-73
2022/05/31 20:27:48;;;;;;;0.10;0.10;;;;;;;12.41;92.17;101326.16;10372311;28;20484;-73
2022/05/31 20:32:49;;;;;;;0.10;0.10;;;;;;;12.34;90.97;101323.28;10357219;28;20031;-73
2022/05/31 20:37:49;;;;;;;0.10;0.10;;;;;;;12.27;90.04;101316.88;10332299;28;20034;-73
2022/05/31 20:42:55;;;;;;;0.10;0.10;;;;;;;12.16;90.58;101314.50;10330857;28;20085;-73
2022/05/31 20:47:55;;;;;;;0.10;0.10;;;;;;;12.11;90.03;101311.47;10330442;28;20476;-73
2022/05/31 20:52:56;;;;;;;0.10;0.10;;;;;;;12.04;91.49;101318.41;10331140;28;20018;-73
2022/05/31 20:57:57;;;;;;;0.10;0.10;;;;;;;11.98;92.75;101318.06;10333642;28;20523;-73
2022/05/31 21:02:58;;;;;;;0.10;0.10;;;;;;;11.91;94.09;101329.53;10338086;28;20046;-73
2022/05/31 21:08:00;;;;;;;0.10;0.10;;;;;;;11.89;94.68;101329.66;10347110;28;20486;-73
2022/05/31 21:13:01;;;;;;;0.10;0.10;;;;;;;11.83;97.28;101326.75;10348271;28;20484;-73
2022/05/31 21:18:02;;;;;;;0.10;0.10;;;;;;;11.72;100.00;101320.69;10362413;28;20031;-73
2022/05/31 21:23:02;;;;;;;0.00;0.00;;;;;;;11.61;100.00;101320.91;10327859;28;20113;-73
2022/05/31 21:28:09;;;;;;;0.10;0.10;;;;;;;11.53;100.00;101327.00;10336837;28;20481;-73
2022/05/31 21:33:12;;;;;;;0.10;0.10;;;;;;;11.46;100.00;101325.09;10330249;28;20491;-73
2022/05/31 21:38:15;;;;;;;0.10;0.10;;;;;;;11.36;100.00;101319.84;10327362;28;20030;-73
2022/05/31 21:43:15;;;;;;;0.10;0.10;;;;;;;11.22;100.00;101315.03;10328397;28;20014;-73
2022/05/31 21:48:16;;;;;;;0.10;0.10;;;;;;;11.13;100.00;101322.13;10327631;28;20060;-73
2022/05/31 21:53:24;;;;;;;0.10;0.10;;;;;;;11.07;100.00;101315.56;10329126;28;20026;-72
2022/05/31 21:58:26;;;;;;;0.00;0.00;;;;;;;11.06;100.00;101313.06;10340588;28;20030;-73
2022/05/31 22:03:29;;;;;;;0.10;0.10;;;;;;;11.05;100.00;101317.56;10328265;28;20029;-73
2022/05/31 22:08:30;;;;;;;0.10;0.10;;;;;;;11.03;100.00;101316.03;10327089;28;20054;-73
2022/05/31 22:13:31;;;;;;;0.10;0.10;;;;;;;11.02;100.00;101320.50;10326667;28;20053;-73
2022/05/31 22:18:32;;;;;;;0.10;0.10;;;;;;;11.05;100.00;101328.22;10327025;28;20069;-73
2022/05/31 22:23:32;;;;;;;0.00;0.00;;;;;;;11.06;100.00;101335.22;10325398;28;20018;-73
2022/05/31 22:28:32;;;;;;;0.10;0.10;;;;;;;11.09;100.00;101336.75;10327028;28;20366;-73
2022/05/31 22:33:33;;;;;;;0.10;0.10;;;;;;;11.13;100.00;101327.44;10325324;28;20019;-73
2022/05/31 22:38:38;;;;;;;0.00;0.00;;;;;;;11.16;100.00;101327.16;10325483;28;20030;-73
2022/05/31 22:43:41;;;;;;;0.10;0.10;;;;;;;11.14;100.00;101310.47;10329668;28;20457;-73
2022/05/31 22:48:41;;;;;;;0.10;0.10;;;;;;;11.09;100.00;101307.41;10330961;28;20041;-72
2022/05/31 22:53:41;;;;;;;0.00;0.00;;;;;;;11.05;100.00;101311.34;10323333;28;20049;-73
2022/05/31 22:58:43;;;;;;;0.10;0.10;;;;;;;11.00;100.00;101306.50;10324410;28;20519;-73
2022/05/31 23:03:45;;;;;;;0.10;0.10;;;;;;;10.94;100.00;101303.56;10323824;28;20100;-73
2022/05/31 23:08:46;;;;;;;0.00;0.00;;;;;;;10.85;100.00;101305.34;10325157;28;20023;-73
2022/05/31 23:13:46;;;;;;;0.00;0.00;;;;;;;10.79;100.00;101312.09;10323660;28;20492;-72
2022/05/31 23:18:49;;;;;;;0.05;0.05;;;;;;;10.73;100.00;101298.50;10326128;28;20042;-73
2022/05/31 23:23:51;;;;;;;0.10;0.10;;;;;;;10.69;100.00;101299.81;10333580;28;20081;-72
2022/05/31 23:28:56;;;;;;;0.10;0.10;;;;;;;10.63;100.00;101298.56;10347992;28;20058;-73
2022/05/31 23:34:02;;;;;;;0.10;0.10;;;;;;;10.55;100.00;101296.63;10348215;28;20491;-72
2022/05/31 23:39:03;;;;;;;0.00;0.00;;;;;;;10.48;100.00;101294.72;10326236;28;20038;-72
2022/05/31 23:44:03;;;;;;;0.08;0.08;;;;;;;10.41;100.00;101286.47;10325191;28;20018;-72
2022/05/31 23:49:04;;;;;;;0.03;0.03;;;;;;;10.34;100.00;101290.72;10340810;28;20073;-74
2022/05/31 23:54:04;;;;;;;0.00;0.00;;;;;;;10.30;100.00;101279.50;10360130;28;20058;-74
2022/05/31 23:59:05;;;;;;;0.10;0.10;;;;;;;10.23;100.00;101273.03;10364126;28;20283;-74
